createdAt,value
2019-05-02T00:01:04.160Z,5.91
2019-05-02T00:04:19.661Z,5.91
2019-05-02T00:07:21.783Z,5.87
2019-05-02T00:10:31.483Z,5.81
2019-05-02T00:13:39.289Z,5.72
2019-05-02T00:16:49.326Z,5.72
2019-05-02T00:19:56.354Z,5.62
2019-05-02T00:23:03.956Z,5.59
2019-05-02T00:26:11.858Z,5.57
2019-05-02T00:29:23.830Z,5.61
2019-05-02T00:32:29.526Z,5.63
2019-05-02T00:35:40.746Z,5.52
2019-05-02T00:38:47.059Z,5.42
2019-05-02T00:41:54.572Z,5.46
2019-05-02T00:45:02.684Z,5.45
2019-05-02T00:48:33.992Z,5.53
2019-05-02T00:51:41.499Z,5.55
2019-05-02T00:54:54.973Z,5.53
2019-05-02T00:58:01.340Z,5.42
2019-05-02T01:01:37.501Z,5.38
2019-05-02T01:04:46.647Z,5.26
2019-05-02T01:07:55.908Z,5.22
2019-05-02T01:11:03.769Z,5.22
2019-05-02T01:14:11.273Z,5.14
2019-05-02T01:17:18.724Z,5.15
2019-05-02T01:20:27.549Z,5.30
2019-05-02T01:23:36.028Z,5.16
2019-05-02T01:26:59.817Z,5.03
2019-05-02T01:30:31.609Z,4.96
2019-05-02T01:33:59.362Z,4.95
2019-05-02T01:37:20.393Z,5.01
2019-05-02T01:40:22.134Z,4.90
2019-05-02T01:43:30.927Z,4.86
2019-05-02T01:46:38.523Z,4.83
2019-05-02T01:49:46.585Z,5.05
2019-05-02T01:52:58.555Z,5.02
2019-05-02T01:56:04.843Z,5.00
2019-05-02T01:59:12.403Z,4.88
2019-05-02T02:02:20.199Z,4.94
2019-05-02T02:05:32.259Z,4.93
2019-05-02T02:08:37.246Z,4.82
2019-05-02T02:11:44.538Z,4.81
2019-05-02T02:14:53.657Z,4.93
2019-05-02T02:18:01.260Z,4.76
2019-05-02T02:21:37.168Z,4.60
2019-05-02T02:24:48.158Z,4.49
2019-05-02T02:27:59.767Z,4.55
2019-05-02T02:31:07.819Z,4.61
2019-05-02T02:34:14.524Z,4.45
2019-05-02T02:37:22.085Z,4.38
2019-05-02T02:40:33.587Z,4.38
2019-05-02T02:43:40.094Z,4.36
2019-05-02T02:46:47.537Z,4.34
2019-05-02T02:50:02.703Z,4.35
2019-05-02T02:53:04.257Z,4.31
2019-05-02T02:56:11.757Z,4.26
2019-05-02T02:59:25.778Z,4.19
2019-05-02T03:02:29.145Z,4.40
2019-05-02T03:05:36.422Z,4.28
2019-05-02T03:08:48.694Z,4.16
2019-05-02T03:12:12.389Z,4.10
2019-05-02T03:15:28.005Z,4.08
2019-05-02T03:18:39.722Z,3.99
2019-05-02T03:21:54.315Z,4.03
2019-05-02T03:25:01.846Z,3.96
2019-05-02T03:28:17.403Z,3.96
2019-05-02T03:31:28.241Z,3.95
2019-05-02T03:34:44.809Z,3.97
2019-05-02T03:37:44.699Z,3.95
2019-05-02T03:40:48.743Z,3.94
2019-05-02T03:44:10.879Z,3.87
2019-05-02T03:47:06.200Z,3.82
2019-05-02T03:50:14.027Z,3.88
2019-05-02T03:53:24.987Z,3.88
2019-05-02T03:56:31.668Z,3.84
2019-05-02T03:59:41.836Z,3.92
2019-05-02T04:02:58.975Z,3.93
2019-05-02T04:05:59.414Z,3.92
2019-05-02T04:09:07.314Z,3.96
2019-05-02T04:12:21.752Z,3.95
2019-05-02T04:15:28.773Z,4.00
2019-05-02T04:18:39.514Z,3.99
2019-05-02T04:21:54.757Z,4.09
2019-05-02T04:25:00.737Z,4.16
2019-05-02T04:28:11.904Z,4.20
2019-05-02T04:31:17.800Z,4.30
2019-05-02T04:34:25.571Z,4.40
2019-05-02T04:37:34.368Z,4.50
2019-05-02T04:40:46.436Z,4.59
2019-05-02T04:43:57.397Z,4.71
2019-05-02T04:47:11.099Z,4.82
2019-05-02T04:50:18.320Z,4.75
2019-05-02T04:53:25.942Z,4.96
2019-05-02T04:56:31.182Z,5.10
2019-05-02T04:59:39.616Z,5.36
2019-05-02T05:02:48.382Z,5.53
2019-05-02T05:05:59.411Z,5.72
2019-05-02T05:09:10.395Z,5.90
2019-05-02T05:12:17.607Z,6.06
2019-05-02T05:15:37.319Z,6.29
2019-05-02T05:18:35.098Z,6.60
2019-05-02T05:21:42.682Z,6.83
2019-05-02T05:24:58.220Z,6.89
2019-05-02T05:28:08.783Z,7.10
2019-05-02T05:31:18.463Z,7.44
2019-05-02T05:34:28.627Z,7.65
2019-05-02T05:37:35.198Z,7.96
2019-05-02T05:40:42.830Z,8.10
2019-05-02T05:43:53.587Z,8.46
2019-05-02T05:46:59.743Z,8.67
2019-05-02T05:50:08.268Z,9.23
2019-05-02T05:53:17.183Z,11.36
2019-05-02T05:56:27.962Z,12.46
2019-05-02T05:59:35.384Z,14.12
2019-05-02T06:02:52.973Z,15.00
2019-05-02T06:05:52.567Z,16.60
2019-05-02T06:09:00.210Z,18.22
2019-05-02T06:12:07.805Z,18.38
2019-05-02T06:15:15.615Z,17.77
2019-05-02T06:18:23.467Z,18.40
2019-05-02T06:21:31.631Z,17.65
2019-05-02T06:24:39.501Z,18.29
2019-05-02T06:27:47.345Z,17.88
2019-05-02T06:30:55.142Z,18.10
2019-05-02T06:34:07.019Z,18.39
2019-05-02T06:37:13.558Z,19.15
2019-05-02T06:40:21.630Z,20.49
2019-05-02T06:43:29.021Z,22.23
2019-05-02T06:46:36.615Z,22.19
2019-05-02T06:49:46.771Z,21.59
2019-05-02T06:52:57.166Z,21.34
2019-05-02T06:56:07.940Z,21.54
2019-05-02T06:59:18.399Z,22.10
2019-05-02T07:02:23.635Z,21.67
2019-05-02T07:05:33.368Z,22.36
2019-05-02T07:08:40.771Z,21.27
2019-05-02T07:11:56.874Z,20.67
2019-05-02T07:15:01.656Z,21.45
2019-05-02T07:18:12.216Z,21.12
2019-05-02T07:21:23.409Z,20.61
2019-05-02T07:24:30.717Z,20.91
2019-05-02T07:27:39.462Z,21.51
2019-05-02T07:30:47.717Z,20.86
2019-05-02T07:33:55.365Z,20.76
2019-05-02T07:37:02.955Z,21.47
2019-05-02T07:40:12.101Z,21.29
2019-05-02T07:43:22.162Z,21.35
2019-05-02T07:46:29.417Z,21.50
2019-05-02T07:49:37.054Z,22.27
2019-05-02T07:52:45.042Z,21.99
2019-05-02T07:55:52.977Z,21.11
2019-05-02T07:59:00.872Z,21.16
2019-05-02T08:02:08.429Z,21.82
2019-05-02T08:05:21.654Z,21.46
2019-05-02T08:08:29.790Z,20.61
2019-05-02T08:11:38.511Z,20.19
2019-05-02T08:14:46.648Z,20.84
2019-05-02T08:17:55.248Z,21.39
2019-05-02T08:21:05.710Z,20.34
2019-05-02T08:24:13.716Z,20.88
2019-05-02T08:27:41.036Z,21.07
2019-05-02T08:30:52.287Z,21.42
2019-05-02T08:33:59.731Z,21.28
2019-05-02T08:37:07.326Z,22.21
2019-05-02T08:40:15.217Z,22.14
2019-05-02T08:43:22.865Z,22.41
2019-05-02T08:46:30.131Z,22.75
2019-05-02T08:49:37.998Z,21.79
2019-05-02T08:52:47.914Z,20.51
2019-05-02T08:55:54.758Z,20.06
2019-05-02T08:59:02.649Z,19.62
2019-05-02T09:02:10.262Z,19.60
2019-05-02T09:05:17.770Z,20.48
2019-05-02T09:08:25.635Z,20.85
2019-05-02T09:12:09.671Z,21.46
2019-05-02T09:15:11.853Z,21.09
2019-05-02T09:18:21.776Z,21.02
2019-05-02T09:21:32.183Z,20.17
2019-05-02T09:24:38.408Z,20.76
2019-05-02T09:27:46.645Z,20.33
2019-05-02T09:30:57.362Z,19.71
2019-05-02T09:34:04.416Z,20.58
2019-05-02T09:37:12.128Z,21.08
2019-05-02T09:40:22.039Z,20.91
2019-05-02T09:43:34.864Z,20.78
2019-05-02T09:46:39.615Z,20.59
2019-05-02T09:49:50.392Z,20.01
2019-05-02T09:52:58.319Z,20.07
2019-05-02T09:56:06.062Z,20.69
2019-05-02T09:59:26.700Z,20.16
2019-05-02T10:02:25.288Z,20.67
2019-05-02T10:05:35.596Z,20.49
2019-05-02T10:08:46.321Z,19.90
2019-05-02T10:11:52.798Z,20.06
2019-05-02T10:15:02.355Z,20.53
2019-05-02T10:18:12.045Z,20.21
2019-05-02T10:21:19.310Z,19.56
2019-05-02T10:24:26.726Z,19.85
2019-05-02T10:27:38.571Z,19.80
2019-05-02T10:30:47.472Z,19.65
2019-05-02T10:33:54.477Z,20.35
2019-05-02T10:37:03.119Z,21.38
2019-05-02T10:40:15.475Z,21.52
2019-05-02T10:43:22.266Z,22.02
2019-05-02T10:46:37.684Z,22.31
2019-05-02T10:50:07.008Z,22.15
2019-05-02T10:53:15.689Z,21.70
2019-05-02T10:56:23.515Z,22.11
2019-05-02T10:59:32.818Z,21.99
2019-05-02T11:03:00.255Z,22.20
2019-05-02T11:06:07.969Z,22.19
2019-05-02T11:09:16.853Z,22.40
2019-05-02T11:12:47.022Z,22.00
2019-05-02T11:16:17.401Z,22.17
2019-05-02T11:19:46.409Z,21.91
2019-05-02T11:22:54.653Z,21.49
2019-05-02T11:26:02.779Z,21.24
2019-05-02T11:29:12.117Z,21.21
2019-05-02T11:32:22.031Z,21.26
2019-05-02T11:35:31.807Z,20.98
2019-05-02T11:38:41.977Z,20.70
2019-05-02T11:41:49.841Z,20.42
2019-05-02T11:44:57.864Z,20.16
2019-05-02T11:48:09.326Z,20.78
2019-05-02T11:51:17.857Z,20.91
2019-05-02T11:54:27.749Z,20.99
2019-05-02T11:57:35.097Z,20.87
2019-05-02T12:00:45.523Z,21.15
2019-05-02T12:03:52.666Z,20.78
2019-05-02T12:07:04.719Z,20.28
2019-05-02T12:10:12.521Z,20.31
2019-05-02T12:13:20.225Z,20.44
2019-05-02T12:16:28.217Z,20.08
2019-05-02T12:19:35.878Z,20.36
2019-05-02T12:22:44.209Z,20.90
2019-05-02T12:25:52.201Z,21.31
2019-05-02T12:29:00.000Z,21.54
2019-05-02T12:32:08.508Z,21.70
2019-05-02T12:35:16.409Z,21.19
2019-05-02T12:38:24.549Z,21.20
2019-05-02T12:41:33.250Z,20.97
2019-05-02T12:44:42.686Z,21.04
2019-05-02T12:47:52.282Z,21.20
2019-05-02T12:51:01.993Z,21.26
2019-05-02T12:54:09.905Z,21.06
2019-05-02T12:57:18.146Z,21.24
2019-05-02T13:00:25.709Z,20.83
2019-05-02T13:03:38.661Z,20.52
2019-05-02T13:06:46.533Z,20.88
2019-05-02T13:09:53.844Z,20.73
2019-05-02T13:13:03.879Z,20.98
2019-05-02T13:16:12.246Z,21.13
2019-05-02T13:19:22.332Z,21.04
2019-05-02T13:22:55.553Z,21.06
2019-05-02T13:26:10.098Z,21.00
2019-05-02T13:29:13.395Z,21.01
2019-05-02T13:32:32.477Z,20.90
2019-05-02T13:35:46.552Z,20.89
2019-05-02T13:38:54.055Z,21.08
2019-05-02T13:42:01.816Z,20.59
2019-05-02T13:45:27.889Z,20.78
2019-05-02T13:48:35.564Z,20.66
2019-05-02T13:51:43.782Z,20.48
2019-05-02T13:54:52.229Z,20.53
2019-05-02T13:58:02.150Z,20.77
2019-05-02T14:01:11.753Z,20.81
2019-05-02T14:04:19.747Z,20.79
2019-05-02T14:07:27.075Z,20.84
2019-05-02T14:10:39.558Z,20.90
2019-05-02T14:13:49.334Z,20.32
2019-05-02T14:16:56.948Z,19.65
2019-05-02T14:20:10.722Z,19.68
2019-05-02T14:23:14.455Z,19.65
2019-05-02T14:26:30.262Z,19.81
2019-05-02T14:29:33.413Z,19.67
2019-05-02T14:32:42.550Z,19.94
2019-05-02T14:35:52.417Z,19.78
2019-05-02T14:39:02.271Z,20.10
2019-05-02T14:42:15.364Z,20.44
2019-05-02T14:45:30.128Z,20.66
2019-05-02T14:48:41.045Z,20.74
2019-05-02T14:51:45.518Z,20.76
2019-05-02T14:54:55.690Z,20.08
2019-05-02T14:58:05.794Z,20.14
2019-05-02T15:01:24.449Z,20.10
2019-05-02T15:04:32.061Z,19.94
2019-05-02T15:07:42.055Z,20.11
2019-05-02T15:10:56.067Z,20.04
2019-05-02T15:14:04.117Z,19.98
2019-05-02T15:17:12.174Z,20.03
2019-05-02T15:20:20.123Z,19.95
2019-05-02T15:23:29.749Z,20.18
2019-05-02T15:26:37.491Z,20.18
2019-05-02T15:29:45.440Z,20.11
2019-05-02T15:32:58.513Z,19.96
2019-05-02T15:36:07.583Z,19.84
2019-05-02T15:42:25.856Z,19.86
2019-05-02T15:45:36.813Z,19.80
2019-05-02T15:48:43.586Z,19.83
2019-05-02T15:51:52.348Z,19.79
2019-05-02T15:55:03.571Z,19.87
2019-05-02T15:58:17.110Z,19.81
2019-05-02T16:01:47.771Z,20.01
2019-05-02T16:04:57.193Z,19.99
2019-05-02T16:08:08.844Z,19.43
2019-05-02T16:11:17.590Z,19.60
2019-05-02T16:14:27.194Z,19.77
2019-05-02T16:17:35.071Z,19.85
2019-05-02T16:21:07.932Z,20.00
2019-05-02T16:24:23.139Z,19.82
2019-05-02T16:27:45.328Z,19.49
2019-05-02T16:30:55.602Z,19.05
2019-05-02T16:34:03.379Z,18.97
2019-05-02T16:37:16.586Z,18.95
2019-05-02T16:40:29.780Z,18.90
2019-05-02T16:43:32.802Z,18.90
2019-05-02T16:46:40.391Z,19.07
2019-05-02T16:49:53.273Z,19.25
2019-05-02T16:52:59.803Z,19.13
2019-05-02T16:56:07.398Z,18.98
2019-05-02T16:59:16.872Z,18.94
2019-05-02T17:02:24.463Z,18.80
2019-05-02T17:05:32.626Z,18.73
2019-05-02T17:08:58.413Z,18.55
2019-05-02T17:12:06.611Z,18.54
2019-05-02T17:15:35.146Z,18.46
2019-05-02T17:18:43.511Z,18.40
2019-05-02T17:21:56.208Z,18.14
2019-05-02T17:25:04.863Z,18.06
2019-05-02T17:28:13.336Z,17.93
2019-05-02T17:31:23.026Z,17.90
2019-05-02T17:34:34.514Z,17.62
2019-05-02T17:37:48.452Z,17.65
2019-05-02T17:40:52.369Z,17.57
2019-05-02T17:44:03.059Z,17.45
2019-05-02T17:47:11.677Z,17.33
2019-05-02T17:50:38.142Z,17.15
2019-05-02T17:53:49.697Z,17.07
2019-05-02T17:56:57.483Z,17.12
2019-05-02T18:00:13.219Z,17.21
2019-05-02T18:03:24.238Z,17.05
2019-05-02T18:06:35.324Z,17.01
2019-05-02T18:09:41.869Z,16.90
2019-05-02T18:12:56.725Z,16.80
2019-05-02T18:15:59.341Z,16.53
2019-05-02T18:19:07.990Z,16.11
2019-05-02T18:22:23.592Z,15.80
2019-05-02T18:25:25.442Z,15.40
2019-05-02T18:28:45.525Z,15.00
2019-05-02T18:31:47.311Z,14.76
2019-05-02T18:34:56.908Z,14.56
2019-05-02T18:38:03.772Z,14.04
2019-05-02T18:41:12.061Z,13.49
2019-05-02T18:44:21.861Z,13.11
2019-05-02T18:47:29.567Z,13.06
2019-05-02T18:50:46.995Z,13.02
2019-05-02T18:53:57.905Z,12.86
2019-05-02T18:57:03.502Z,12.82
2019-05-02T19:00:12.181Z,12.97
2019-05-02T19:03:19.850Z,12.80
2019-05-02T19:06:33.178Z,12.66
2019-05-02T19:09:48.400Z,12.64
2019-05-02T19:12:47.534Z,12.59
2019-05-02T19:15:55.357Z,12.58
2019-05-02T19:19:03.313Z,12.53
2019-05-02T19:22:13.406Z,12.65
2019-05-02T19:25:22.749Z,12.38
2019-05-02T19:28:38.823Z,12.44
2019-05-02T19:31:48.798Z,12.33
2019-05-02T19:34:57.681Z,12.32
2019-05-02T19:38:06.547Z,12.25
2019-05-02T19:41:15.440Z,12.28
2019-05-02T19:44:29.123Z,12.22
2019-05-02T19:47:32.866Z,12.28
2019-05-02T19:50:43.896Z,12.21
2019-05-02T19:53:58.808Z,12.26
2019-05-02T19:57:00.480Z,12.31
2019-05-02T20:00:08.552Z,12.30
2019-05-02T20:03:21.568Z,12.19
2019-05-02T20:06:27.995Z,11.98
2019-05-02T20:09:38.261Z,12.06
2019-05-02T20:12:48.435Z,12.01
2019-05-02T20:16:05.674Z,12.07
2019-05-02T20:19:12.440Z,12.01
2019-05-02T20:22:22.351Z,12.07
2019-05-02T20:25:37.573Z,12.00
2019-05-02T20:28:42.268Z,11.98
2019-05-02T20:31:51.662Z,11.98
2019-05-02T20:34:59.454Z,11.95
2019-05-02T20:38:07.731Z,11.85
2019-05-02T20:41:15.621Z,11.86
2019-05-02T20:44:24.117Z,11.71
2019-05-02T20:47:31.728Z,11.39
2019-05-02T20:50:39.770Z,11.27
2019-05-02T20:53:47.497Z,11.06
2019-05-02T20:56:55.964Z,10.86
2019-05-02T21:00:06.344Z,10.66
2019-05-02T21:03:14.220Z,10.68
2019-05-02T21:06:44.308Z,10.74
2019-05-02T21:10:03.043Z,10.45
2019-05-02T21:13:12.578Z,10.53
2019-05-02T21:16:21.737Z,10.56
2019-05-02T21:19:32.409Z,10.45
2019-05-02T21:22:42.200Z,10.42
2019-05-02T21:25:52.897Z,10.36
2019-05-02T21:29:00.538Z,10.33
2019-05-02T21:32:08.178Z,10.42
2019-05-02T21:35:15.597Z,10.31
2019-05-02T21:38:23.399Z,10.16
2019-05-02T21:41:32.999Z,10.14
2019-05-02T21:44:42.186Z,9.86
2019-05-02T21:47:50.380Z,9.85
2019-05-02T21:51:29.255Z,9.70
2019-05-02T21:54:57.088Z,9.78
2019-05-02T21:58:04.516Z,9.76
2019-05-02T22:01:13.777Z,9.54
2019-05-02T22:04:22.391Z,9.80
2019-05-02T22:07:32.199Z,9.59
2019-05-02T22:10:39.701Z,9.58
2019-05-02T22:13:47.472Z,9.46
2019-05-02T22:16:55.163Z,9.58
2019-05-02T22:20:03.696Z,9.34
2019-05-02T22:23:11.832Z,9.45
2019-05-02T22:26:19.490Z,9.45
2019-05-02T22:29:27.714Z,9.37
2019-05-02T22:32:34.994Z,9.38
2019-05-02T22:35:43.384Z,9.14
2019-05-02T22:38:58.866Z,9.32
2019-05-02T22:42:06.604Z,9.39
2019-05-02T22:45:14.123Z,9.29
2019-05-02T22:48:22.734Z,9.40
2019-05-02T22:51:32.000Z,9.42
2019-05-02T22:54:41.572Z,9.28
2019-05-02T22:57:49.441Z,9.11
2019-05-02T23:00:59.393Z,9.07
2019-05-02T23:04:07.027Z,9.30
2019-05-02T23:07:14.971Z,9.01
2019-05-02T23:10:22.877Z,9.04
2019-05-02T23:13:31.916Z,9.02
2019-05-02T23:16:39.478Z,9.12
2019-05-02T23:19:48.615Z,9.07
2019-05-02T23:22:56.380Z,9.21
2019-05-02T23:26:12.826Z,9.26
2019-05-02T23:29:22.460Z,9.25
2019-05-02T23:32:33.026Z,9.33
2019-05-02T23:35:43.036Z,9.12
2019-05-02T23:38:52.177Z,9.09
2019-05-02T23:42:01.640Z,9.24
2019-05-02T23:45:12.113Z,9.17
2019-05-02T23:48:19.627Z,9.10
2019-05-02T23:51:27.331Z,9.11
2019-05-02T23:54:34.628Z,9.13
2019-05-02T23:57:42.239Z,9.02
